Richton Park, Illinois
Current Conditions -  °F | °C
As of 6:55 PM on Tuesday 21 Oct 2014 (Local Time) from KIGQ Reporting Station
Overcast Overcast  
Wind Chill:   Ceiling: 2900
Heat Index:   Visibility: 10mi
Dew Point:   Wind: 9mph
Humidity: 68%   Direction: 360°N
Pressure: 30.21"   Gusts: NA
Location:  41.48°N, 87.72°W
Report Text: KIGQ 212355Z AUTO 36008KT 340V040 10SM OVC029 10/04 A3021 RMK AO2 T00950039 10101 20092
Loading
Personal Weather Stations






























Interactive Weather Map
Tropical Storm Tracking
New forecast layout! Learn more

10-Day Weather Forecast

Advertisements
Track Severe Weather on mobile